JAL516 RJCC-RJAA
Flight info
| Callsign | JAL516 |
|---|---|
| Flight time | 1h 24m |
| Altitude | 24000 |
| Route | DALBI Y120 RURUD Y125 JUGEM Y30 SWAMP |
| Aircraft | A35K/H-SDE2E3GHIJ1J3J4J5LM1ORWXY/LB1D1 |
Departure
| Time | 2026-05-04 16:14 |
|---|---|
| Airport | New Chitose Airport (RJCC) |
Arrival
| Time | 2026-05-04 17:39 |
|---|---|
| Airport | Narita International Airport (RJAA) |
| Time | Latitude | Longitude | Altitude | Speed | Heading |
|---|---|---|---|---|---|
| 2026-05-04 15:50 | 42.78616 | 141.68256 | 85 ft | 0 kts | 294° |
| 2026-05-04 16:04 | 42.78608 | 141.68279 | 87 ft | 4 kts | 294° |
| 2026-05-04 16:05 | 42.78597 | 141.68312 | 87 ft | 4 kts | 294° |
| 2026-05-04 16:05 | 42.78587 | 141.68342 | 86 ft | 4 kts | 278° |
| 2026-05-04 16:05 | 42.78617 | 141.68385 | 89 ft | 3 kts | 200° |
| 2026-05-04 16:06 | 42.78620 | 141.68386 | 89 ft | 0 kts | 200° |
| 2026-05-04 16:09 | 42.78578 | 141.68364 | 87 ft | 10 kts | 202° |
| 2026-05-04 16:10 | 42.78428 | 141.68488 | 87 ft | 17 kts | 116° |
| 2026-05-04 16:11 | 42.78061 | 141.68721 | 86 ft | 26 kts | 172° |
| 2026-05-04 16:11 | 42.77870 | 141.68755 | 89 ft | 29 kts | 173° |
| 2026-05-04 16:12 | 42.77178 | 141.68876 | 89 ft | 37 kts | 172° |
| 2026-05-04 16:12 | 42.76400 | 141.69015 | 89 ft | 38 kts | 173° |
| 2026-05-04 16:13 | 42.76178 | 141.69222 | 90 ft | 17 kts | 70° |
| 2026-05-04 16:13 | 42.76308 | 141.69254 | 86 ft | 22 kts | 352° |
| 2026-05-04 16:14 | 42.77589 | 141.69032 | 192 ft | 146 kts | 352° |
| 2026-05-04 16:14 | 42.79708 | 141.69032 | 1613 ft | 173 kts | 4° |
| 2026-05-04 16:15 | 42.83923 | 141.69480 | 3619 ft | 219 kts | 3° |
| 2026-05-04 16:16 | 42.86391 | 141.71820 | 5539 ft | 244 kts | 60° |
| 2026-05-04 16:16 | 42.86142 | 141.79253 | 8227 ft | 293 kts | 105° |
| 2026-05-04 16:17 | 42.83152 | 141.83098 | 10047 ft | 316 kts | 165° |
| 2026-05-04 16:18 | 42.77272 | 141.79654 | 11398 ft | 346 kts | 246° |
| 2026-05-04 16:18 | 42.76197 | 141.76681 | 12088 ft | 354 kts | 248° |
| 2026-05-04 16:19 | 42.72319 | 141.67979 | 14724 ft | 365 kts | 239° |
| 2026-05-04 16:19 | 42.69338 | 141.62280 | 16270 ft | 373 kts | 238° |
| 2026-05-04 16:20 | 42.64673 | 141.53629 | 18658 ft | 384 kts | 237° |
| 2026-05-04 16:20 | 42.61457 | 141.47729 | 20139 ft | 392 kts | 236° |
| 2026-05-04 16:21 | 42.56508 | 141.38679 | 22296 ft | 404 kts | 236° |
| 2026-05-04 16:22 | 42.53116 | 141.32494 | 23638 ft | 412 kts | 235° |
| 2026-05-04 16:22 | 42.47959 | 141.23118 | 25744 ft | 415 kts | 234° |
| 2026-05-04 16:23 | 42.42747 | 141.13672 | 27696 ft | 420 kts | 234° |
| 2026-05-04 16:24 | 42.35685 | 141.00917 | 30051 ft | 429 kts | 233° |
| 2026-05-04 16:25 | 42.32075 | 140.94418 | 30834 ft | 435 kts | 233° |
| 2026-05-04 16:26 | 42.24766 | 140.81304 | 32744 ft | 433 kts | 233° |
| 2026-05-04 16:26 | 42.19381 | 140.71677 | 34207 ft | 428 kts | 233° |
| 2026-05-04 16:27 | 42.15791 | 140.65277 | 34860 ft | 428 kts | 233° |
| 2026-05-04 16:28 | 42.10228 | 140.55877 | 35762 ft | 430 kts | 226° |
| 2026-05-04 16:28 | 42.02607 | 140.49400 | 35823 ft | 442 kts | 205° |
| 2026-05-04 16:29 | 41.90648 | 140.44842 | 35835 ft | 449 kts | 200° |
| 2026-05-04 16:31 | 41.75585 | 140.39386 | 35837 ft | 449 kts | 201° |
| 2026-05-04 16:32 | 41.57359 | 140.33540 | 35846 ft | 459 kts | 188° |
| 2026-05-04 16:33 | 41.44452 | 140.34604 | 35856 ft | 467 kts | 182° |
| 2026-05-04 16:34 | 41.34757 | 140.35716 | 35851 ft | 464 kts | 183° |
| 2026-05-04 16:35 | 41.15511 | 140.37741 | 35859 ft | 461 kts | 184° |
| 2026-05-04 16:36 | 41.07248 | 140.38616 | 35864 ft | 459 kts | 183° |
| 2026-05-04 16:37 | 40.97764 | 140.39621 | 35842 ft | 460 kts | 184° |
| 2026-05-04 16:38 | 40.85076 | 140.40950 | 35873 ft | 458 kts | 184° |
| 2026-05-04 16:39 | 40.69232 | 140.42605 | 35879 ft | 455 kts | 184° |
| 2026-05-04 16:40 | 40.56568 | 140.43913 | 35859 ft | 456 kts | 184° |
| 2026-05-04 16:41 | 40.40885 | 140.45648 | 35895 ft | 460 kts | 180° |
| 2026-05-04 16:43 | 40.25212 | 140.50099 | 35899 ft | 458 kts | 176° |
| 2026-05-04 16:43 | 40.15946 | 140.52857 | 35905 ft | 455 kts | 177° |
| 2026-05-04 16:45 | 39.97326 | 140.58326 | 35907 ft | 456 kts | 177° |
| 2026-05-04 16:46 | 39.81930 | 140.62822 | 35916 ft | 454 kts | 178° |
| 2026-05-04 16:47 | 39.69548 | 140.66432 | 35920 ft | 456 kts | 178° |
| 2026-05-04 16:48 | 39.58246 | 140.69713 | 35923 ft | 452 kts | 178° |
| 2026-05-04 16:49 | 39.45924 | 140.73260 | 35897 ft | 455 kts | 178° |
| 2026-05-04 16:50 | 39.33622 | 140.76805 | 35919 ft | 452 kts | 178° |
| 2026-05-04 16:51 | 39.24438 | 140.79443 | 35908 ft | 448 kts | 179° |
| 2026-05-04 16:52 | 39.12212 | 140.82938 | 35920 ft | 451 kts | 179° |
| 2026-05-04 16:53 | 39.03099 | 140.85539 | 35918 ft | 445 kts | 180° |
| 2026-05-04 16:54 | 38.91017 | 140.88956 | 35917 ft | 445 kts | 180° |
| 2026-05-04 16:55 | 38.73021 | 140.94073 | 35909 ft | 439 kts | 182° |
| 2026-05-04 16:56 | 38.58153 | 140.98252 | 35910 ft | 437 kts | 182° |
| 2026-05-04 16:57 | 38.49231 | 141.00760 | 35915 ft | 438 kts | 182° |
| 2026-05-04 16:58 | 38.37322 | 141.04087 | 35918 ft | 440 kts | 182° |
| 2026-05-04 17:00 | 38.19402 | 141.09085 | 35929 ft | 440 kts | 182° |
| 2026-05-04 17:01 | 38.04438 | 141.13236 | 35886 ft | 440 kts | 182° |
| 2026-05-04 17:02 | 37.92585 | 141.15293 | 35935 ft | 411 kts | 197° |
| 2026-05-04 17:02 | 37.87145 | 141.13911 | 35935 ft | 393 kts | 206° |
| 2026-05-04 17:03 | 37.84531 | 141.12919 | 35938 ft | 391 kts | 207° |
| 2026-05-04 17:03 | 37.76771 | 141.09763 | 35939 ft | 391 kts | 208° |
| 2026-05-04 17:04 | 37.66385 | 141.05620 | 35948 ft | 391 kts | 207° |
| 2026-05-04 17:05 | 37.56043 | 141.01556 | 35962 ft | 389 kts | 207° |
| 2026-05-04 17:06 | 37.48296 | 140.98511 | 35963 ft | 389 kts | 207° |
| 2026-05-04 17:07 | 37.41429 | 140.95820 | 35971 ft | 388 kts | 207° |
| 2026-05-04 17:07 | 37.35432 | 140.93481 | 35972 ft | 388 kts | 207° |
| 2026-05-04 17:08 | 37.27684 | 140.90473 | 35971 ft | 388 kts | 207° |
| 2026-05-04 17:09 | 37.22528 | 140.88468 | 35972 ft | 387 kts | 207° |
| 2026-05-04 17:09 | 37.17389 | 140.86480 | 35978 ft | 387 kts | 207° |
| 2026-05-04 17:10 | 37.04508 | 140.81548 | 35985 ft | 387 kts | 207° |
| 2026-05-04 17:11 | 36.99366 | 140.79563 | 35984 ft | 386 kts | 207° |
| 2026-05-04 17:12 | 36.91669 | 140.76602 | 35989 ft | 385 kts | 207° |
| 2026-05-04 17:12 | 36.86543 | 140.74634 | 35878 ft | 384 kts | 207° |
| 2026-05-04 17:13 | 36.78885 | 140.71698 | 35104 ft | 384 kts | 206° |
| 2026-05-04 17:14 | 36.71236 | 140.68772 | 34406 ft | 383 kts | 206° |
| 2026-05-04 17:14 | 36.68691 | 140.67799 | 34179 ft | 383 kts | 206° |
| 2026-05-04 17:14 | 36.63603 | 140.65856 | 33676 ft | 382 kts | 206° |
| 2026-05-04 17:15 | 36.61056 | 140.64884 | 33421 ft | 384 kts | 206° |
| 2026-05-04 17:15 | 36.55960 | 140.62947 | 32203 ft | 380 kts | 206° |
| 2026-05-04 17:16 | 36.50912 | 140.61019 | 30621 ft | 380 kts | 206° |
| 2026-05-04 17:16 | 36.43353 | 140.58130 | 28417 ft | 375 kts | 206° |
| 2026-05-04 17:17 | 36.40861 | 140.57183 | 27831 ft | 374 kts | 206° |
| 2026-05-04 17:17 | 36.33069 | 140.55708 | 25947 ft | 405 kts | 185° |
| 2026-05-04 17:18 | 36.30308 | 140.56592 | 25296 ft | 427 kts | 172° |
| 2026-05-04 17:18 | 36.25287 | 140.61199 | 23851 ft | 482 kts | 140° |
| 2026-05-04 17:19 | 36.21283 | 140.67971 | 22194 ft | 478 kts | 141° |
| 2026-05-04 17:19 | 36.16928 | 140.73929 | 21139 ft | 458 kts | 143° |
| 2026-05-04 17:20 | 36.12481 | 140.79270 | 20050 ft | 425 kts | 158° |
| 2026-05-04 17:20 | 36.07349 | 140.82034 | 19046 ft | 393 kts | 171° |
| 2026-05-04 17:20 | 36.04777 | 140.83152 | 18540 ft | 391 kts | 171° |
| 2026-05-04 17:21 | 35.99704 | 140.85372 | 17325 ft | 385 kts | 171° |
| 2026-05-04 17:21 | 35.94685 | 140.87575 | 16184 ft | 381 kts | 171° |
| 2026-05-04 17:22 | 35.92195 | 140.88670 | 15621 ft | 379 kts | 171° |
| 2026-05-04 17:22 | 35.89717 | 140.89760 | 15026 ft | 378 kts | 170° |
| 2026-05-04 17:23 | 35.82325 | 140.93019 | 13306 ft | 374 kts | 169° |
| 2026-05-04 17:23 | 35.79884 | 140.94086 | 12705 ft | 369 kts | 169° |
| 2026-05-04 17:23 | 35.75057 | 140.94701 | 11623 ft | 335 kts | 198° |
| 2026-05-04 17:24 | 35.72961 | 140.93779 | 11450 ft | 309 kts | 212° |
| 2026-05-04 17:24 | 35.68131 | 140.89679 | 11052 ft | 261 kts | 219° |
| 2026-05-04 17:25 | 35.66701 | 140.88400 | 10932 ft | 248 kts | 219° |
| 2026-05-04 17:25 | 35.63965 | 140.85960 | 10663 ft | 243 kts | 219° |
| 2026-05-04 17:26 | 35.61216 | 140.83525 | 10388 ft | 244 kts | 218° |
| 2026-05-04 17:26 | 35.56961 | 140.79753 | 9570 ft | 264 kts | 217° |
| 2026-05-04 17:27 | 35.53967 | 140.77119 | 8511 ft | 265 kts | 218° |
| 2026-05-04 17:27 | 35.51281 | 140.74096 | 7714 ft | 261 kts | 232° |
| 2026-05-04 17:28 | 35.49126 | 140.70532 | 6946 ft | 259 kts | 247° |
| 2026-05-04 17:29 | 35.49906 | 140.64666 | 6455 ft | 223 kts | 297° |
| 2026-05-04 17:29 | 35.52042 | 140.60179 | 6174 ft | 182 kts | 297° |
| 2026-05-04 17:30 | 35.54412 | 140.56759 | 5750 ft | 173 kts | 321° |
| 2026-05-04 17:31 | 35.56401 | 140.55235 | 5235 ft | 164 kts | 326° |
| 2026-05-04 17:31 | 35.59138 | 140.53261 | 4575 ft | 136 kts | 324° |
| 2026-05-04 17:32 | 35.60654 | 140.52166 | 4220 ft | 121 kts | 324° |
| 2026-05-04 17:33 | 35.62830 | 140.50595 | 3742 ft | 121 kts | 325° |
| 2026-05-04 17:33 | 35.63555 | 140.50071 | 3580 ft | 121 kts | 325° |
| 2026-05-04 17:34 | 35.65715 | 140.48510 | 3092 ft | 119 kts | 326° |
| 2026-05-04 17:34 | 35.66431 | 140.47995 | 2930 ft | 119 kts | 327° |
| 2026-05-04 17:35 | 35.68578 | 140.46440 | 2436 ft | 120 kts | 328° |
| 2026-05-04 17:35 | 35.70021 | 140.45396 | 2095 ft | 121 kts | 327° |
| 2026-05-04 17:35 | 35.70746 | 140.44859 | 1937 ft | 123 kts | 327° |
| 2026-05-04 17:36 | 35.71487 | 140.44336 | 1760 ft | 123 kts | 328° |
| 2026-05-04 17:36 | 35.72223 | 140.43793 | 1588 ft | 123 kts | 329° |
| 2026-05-04 17:36 | 35.72715 | 140.43440 | 1469 ft | 123 kts | 330° |
| 2026-05-04 17:36 | 35.73466 | 140.42910 | 1328 ft | 125 kts | 329° |
| 2026-05-04 17:37 | 35.74461 | 140.42172 | 1102 ft | 124 kts | 327° |
| 2026-05-04 17:37 | 35.74956 | 140.41819 | 1014 ft | 125 kts | 329° |
| 2026-05-04 17:37 | 35.75710 | 140.41289 | 834 ft | 125 kts | 327° |
| 2026-05-04 17:37 | 35.76452 | 140.40743 | 660 ft | 125 kts | 330° |
| 2026-05-04 17:38 | 35.77229 | 140.40185 | 485 ft | 132 kts | 330° |
| 2026-05-04 17:38 | 35.78014 | 140.39615 | 317 ft | 131 kts | 328° |
| 2026-05-04 17:38 | 35.78792 | 140.39056 | 166 ft | 128 kts | 330° |
| 2026-05-04 17:38 | 35.79496 | 140.38549 | 150 ft | 99 kts | 329° |
| 2026-05-04 17:39 | 35.80209 | 140.38029 | 152 ft | 28 kts | 329° |
| 2026-05-04 17:39 | 35.80256 | 140.37927 | 152 ft | 14 kts | 257° |
| 2026-05-04 17:39 | 35.80205 | 140.37812 | 150 ft | 11 kts | 224° |
| 2026-05-04 17:40 | 35.80134 | 140.37831 | 150 ft | 13 kts | 149° |
| 2026-05-04 17:40 | 35.80048 | 140.37896 | 150 ft | 16 kts | 149° |
| 2026-05-04 17:40 | 35.79940 | 140.37973 | 150 ft | 20 kts | 150° |
| 2026-05-04 17:40 | 35.79809 | 140.38067 | 150 ft | 23 kts | 149° |
| 2026-05-04 17:41 | 35.79658 | 140.38175 | 150 ft | 27 kts | 149° |
| 2026-05-04 17:41 | 35.79488 | 140.38299 | 150 ft | 30 kts | 149° |
| 2026-05-04 17:41 | 35.79310 | 140.38427 | 150 ft | 32 kts | 149° |
| 2026-05-04 17:41 | 35.79262 | 140.38462 | 150 ft | 33 kts | 149° |
| 2026-05-04 17:42 | 35.79079 | 140.38595 | 150 ft | 24 kts | 145° |
| 2026-05-04 17:42 | 35.78976 | 140.38762 | 150 ft | 25 kts | 139° |
| 2026-05-04 17:42 | 35.78821 | 140.38847 | 150 ft | 25 kts | 165° |
| 2026-05-04 17:42 | 35.78644 | 140.38826 | 150 ft | 27 kts | 189° |
| 2026-05-04 17:43 | 35.78447 | 140.38794 | 150 ft | 30 kts | 187° |
| 2026-05-04 17:43 | 35.78234 | 140.38784 | 149 ft | 31 kts | 168° |
| 2026-05-04 17:43 | 35.78079 | 140.38870 | 149 ft | 19 kts | 117° |
| 2026-05-04 17:43 | 35.78016 | 140.39031 | 149 ft | 22 kts | 137° |
| 2026-05-04 17:44 | 35.77897 | 140.39157 | 149 ft | 24 kts | 118° |
| 2026-05-04 17:44 | 35.77775 | 140.39298 | 150 ft | 22 kts | 149° |
| 2026-05-04 17:44 | 35.77727 | 140.39333 | 150 ft | 2 kts | 149° |
| 2026-05-04 17:44 | 35.77705 | 140.39345 | 150 ft | 4 kts | 169° |
| 2026-05-04 17:45 | 35.77674 | 140.39325 | 150 ft | 6 kts | 228° |
| 2026-05-04 17:45 | 35.77653 | 140.39286 | 150 ft | 4 kts | 237° |
| 2026-05-04 17:45 | 35.77647 | 140.39275 | 150 ft | 1 kts | 238° |
| 2026-05-04 17:45 | 35.77645 | 140.39272 | 150 ft | 0 kts | 238° |